sensor_id;sensor_type;location;lat;lon;timestamp;temperature;humidity
41058;DHT22;27499;48.884;2.258;2022-10-17T00:00:43;18.20;99.90
41058;DHT22;27499;48.884;2.258;2022-10-17T00:03:10;18.30;99.90
41058;DHT22;27499;48.884;2.258;2022-10-17T00:05:41;18.20;99.90
41058;DHT22;27499;48.884;2.258;2022-10-17T00:08:09;18.30;99.90
41058;DHT22;27499;48.884;2.258;2022-10-17T00:10:38;18.30;99.90
41058;DHT22;27499;48.884;2.258;2022-10-17T00:13:05;18.30;99.90
41058;DHT22;27499;48.884;2.258;2022-10-17T00:15:33;18.30;99.90
41058;DHT22;27499;48.884;2.258;2022-10-17T00:18:00;18.30;99.90
41058;DHT22;27499;48.884;2.258;2022-10-17T00:20:27;18.30;99.90
41058;DHT22;27499;48.884;2.258;2022-10-17T00:22:56;18.30;99.90
41058;DHT22;27499;48.884;2.258;2022-10-17T00:25:23;18.30;99.90
41058;DHT22;27499;48.884;2.258;2022-10-17T00:27:50;18.30;99.90
41058;DHT22;27499;48.884;2.258;2022-10-17T00:30:17;18.30;99.90
41058;DHT22;27499;48.884;2.258;2022-10-17T00:32:44;18.40;99.90
41058;DHT22;27499;48.884;2.258;2022-10-17T00:35:10;18.30;99.90
41058;DHT22;27499;48.884;2.258;2022-10-17T00:37:37;18.30;99.90
41058;DHT22;27499;48.884;2.258;2022-10-17T00:40:05;18.40;99.90
41058;DHT22;27499;48.884;2.258;2022-10-17T00:42:32;18.40;99.90
41058;DHT22;27499;48.884;2.258;2022-10-17T00:47:34;18.40;99.90
41058;DHT22;27499;48.884;2.258;2022-10-17T00:50:03;18.40;99.90
41058;DHT22;27499;48.884;2.258;2022-10-17T00:52:31;18.40;99.90
41058;DHT22;27499;48.884;2.258;2022-10-17T00:55:18;18.50;99.90
41058;DHT22;27499;48.884;2.258;2022-10-17T00:57:46;18.50;99.90
41058;DHT22;27499;48.884;2.258;2022-10-17T01:00:15;18.50;99.90
41058;DHT22;27499;48.884;2.258;2022-10-17T01:02:43;18.50;99.90
41058;DHT22;27499;48.884;2.258;2022-10-17T01:05:10;18.50;99.90
41058;DHT22;27499;48.884;2.258;2022-10-17T01:07:39;18.50;99.90
41058;DHT22;27499;48.884;2.258;2022-10-17T01:10:07;18.50;99.90
41058;DHT22;27499;48.884;2.258;2022-10-17T01:12:44;18.50;99.90
41058;DHT22;27499;48.884;2.258;2022-10-17T01:24:13;18.50;99.90
41058;DHT22;27499;48.884;2.258;2022-10-17T01:33:02;18.50;99.90
41058;DHT22;27499;48.884;2.258;2022-10-17T01:36:03;18.50;99.90
41058;DHT22;27499;48.884;2.258;2022-10-17T01:38:52;18.40;99.90
41058;DHT22;27499;48.884;2.258;2022-10-17T01:43:59;18.40;99.90
41058;DHT22;27499;48.884;2.258;2022-10-17T01:46:35;18.40;99.90
41058;DHT22;27499;48.884;2.258;2022-10-17T01:49:04;18.40;99.90
41058;DHT22;27499;48.884;2.258;2022-10-17T01:54:52;18.40;99.90
41058;DHT22;27499;48.884;2.258;2022-10-17T01:57:29;18.40;99.90
41058;DHT22;27499;48.884;2.258;2022-10-17T01:59:59;18.40;99.90
41058;DHT22;27499;48.884;2.258;2022-10-17T02:02:27;18.40;99.90
41058;DHT22;27499;48.884;2.258;2022-10-17T02:04:55;18.40;99.90
41058;DHT22;27499;48.884;2.258;2022-10-17T02:07:23;18.40;99.90
41058;DHT22;27499;48.884;2.258;2022-10-17T02:09:49;18.40;99.90
41058;DHT22;27499;48.884;2.258;2022-10-17T02:20:52;18.40;99.90
41058;DHT22;27499;48.884;2.258;2022-10-17T02:23:29;18.40;99.90
41058;DHT22;27499;48.884;2.258;2022-10-17T02:28:43;18.40;99.90
41058;DHT22;27499;48.884;2.258;2022-10-17T02:31:16;18.40;99.90
41058;DHT22;27499;48.884;2.258;2022-10-17T02:33:55;18.40;99.90
41058;DHT22;27499;48.884;2.258;2022-10-17T02:36:28;18.40;99.90
41058;DHT22;27499;48.884;2.258;2022-10-17T02:38:57;18.40;99.90
41058;DHT22;27499;48.884;2.258;2022-10-17T02:41:24;18.40;99.90
41058;DHT22;27499;48.884;2.258;2022-10-17T02:43:52;18.40;99.90
41058;DHT22;27499;48.884;2.258;2022-10-17T02:46:22;18.40;99.90
41058;DHT22;27499;48.884;2.258;2022-10-17T02:51:51;18.40;99.90
41058;DHT22;27499;48.884;2.258;2022-10-17T02:54:30;18.40;99.90
41058;DHT22;27499;48.884;2.258;2022-10-17T02:57:05;18.40;99.90
41058;DHT22;27499;48.884;2.258;2022-10-17T02:59:34;18.30;99.90
41058;DHT22;27499;48.884;2.258;2022-10-17T03:02:04;18.30;99.90
41058;DHT22;27499;48.884;2.258;2022-10-17T03:04:32;18.30;99.90
41058;DHT22;27499;48.884;2.258;2022-10-17T03:06:59;18.30;99.90
41058;DHT22;27499;48.884;2.258;2022-10-17T03:09:26;18.30;99.90
41058;DHT22;27499;48.884;2.258;2022-10-17T03:11:53;18.30;99.90
41058;DHT22;27499;48.884;2.258;2022-10-17T03:14:20;18.30;99.90
41058;DHT22;27499;48.884;2.258;2022-10-17T03:16:46;18.30;99.90
41058;DHT22;27499;48.884;2.258;2022-10-17T03:19:13;18.30;99.90
41058;DHT22;27499;48.884;2.258;2022-10-17T03:21:40;18.30;99.90
41058;DHT22;27499;48.884;2.258;2022-10-17T03:24:07;18.30;99.90
41058;DHT22;27499;48.884;2.258;2022-10-17T03:26:34;18.30;99.90
41058;DHT22;27499;48.884;2.258;2022-10-17T03:29:01;18.30;99.90
41058;DHT22;27499;48.884;2.258;2022-10-17T03:31:28;18.40;99.90
41058;DHT22;27499;48.884;2.258;2022-10-17T03:33:55;18.30;99.90
41058;DHT22;27499;48.884;2.258;2022-10-17T03:36:22;18.30;99.90
41058;DHT22;27499;48.884;2.258;2022-10-17T03:38:52;18.40;99.90
41058;DHT22;27499;48.884;2.258;2022-10-17T03:41:20;18.40;99.90
41058;DHT22;27499;48.884;2.258;2022-10-17T03:43:47;18.30;99.90
41058;DHT22;27499;48.884;2.258;2022-10-17T03:46:14;18.30;99.90
41058;DHT22;27499;48.884;2.258;2022-10-17T03:48:41;18.30;99.90
41058;DHT22;27499;48.884;2.258;2022-10-17T03:51:08;18.30;99.90
41058;DHT22;27499;48.884;2.258;2022-10-17T03:53:35;18.30;99.90
41058;DHT22;27499;48.884;2.258;2022-10-17T03:56:14;18.30;99.90
41058;DHT22;27499;48.884;2.258;2022-10-17T03:58:41;18.30;99.90
41058;DHT22;27499;48.884;2.258;2022-10-17T04:01:10;18.30;99.90
41058;DHT22;27499;48.884;2.258;2022-10-17T04:03:38;18.30;99.90
41058;DHT22;27499;48.884;2.258;2022-10-17T04:06:05;18.30;99.90
41058;DHT22;27499;48.884;2.258;2022-10-17T04:08:33;18.30;99.90
41058;DHT22;27499;48.884;2.258;2022-10-17T04:11:01;18.30;99.90
41058;DHT22;27499;48.884;2.258;2022-10-17T04:13:29;18.30;99.90
41058;DHT22;27499;48.884;2.258;2022-10-17T04:16:09;18.30;99.90
41058;DHT22;27499;48.884;2.258;2022-10-17T04:18:36;18.30;99.90
41058;DHT22;27499;48.884;2.258;2022-10-17T04:21:04;18.30;99.90
41058;DHT22;27499;48.884;2.258;2022-10-17T04:23:31;18.30;99.90
41058;DHT22;27499;48.884;2.258;2022-10-17T04:25:59;18.30;99.90
41058;DHT22;27499;48.884;2.258;2022-10-17T04:28:26;18.30;99.90
41058;DHT22;27499;48.884;2.258;2022-10-17T04:30:58;18.30;99.90
41058;DHT22;27499;48.884;2.258;2022-10-17T04:33:26;18.30;99.90
41058;DHT22;27499;48.884;2.258;2022-10-17T04:38:27;18.30;99.90
41058;DHT22;27499;48.884;2.258;2022-10-17T04:41:03;18.30;99.90
41058;DHT22;27499;48.884;2.258;2022-10-17T04:43:31;18.30;99.90
41058;DHT22;27499;48.884;2.258;2022-10-17T04:45:58;18.30;99.90
41058;DHT22;27499;48.884;2.258;2022-10-17T04:48:26;18.30;99.90
41058;DHT22;27499;48.884;2.258;2022-10-17T04:50:59;18.30;99.90
41058;DHT22;27499;48.884;2.258;2022-10-17T04:53:27;18.30;99.90
41058;DHT22;27499;48.884;2.258;2022-10-17T04:55:54;18.30;99.90
41058;DHT22;27499;48.884;2.258;2022-10-17T04:58:21;18.30;99.90
41058;DHT22;27499;48.884;2.258;2022-10-17T05:00:48;18.30;99.90
41058;DHT22;27499;48.884;2.258;2022-10-17T05:03:15;18.30;99.90
41058;DHT22;27499;48.884;2.258;2022-10-17T05:05:42;18.30;99.90
41058;DHT22;27499;48.884;2.258;2022-10-17T05:08:10;18.30;99.90
41058;DHT22;27499;48.884;2.258;2022-10-17T05:10:38;18.30;99.90
41058;DHT22;27499;48.884;2.258;2022-10-17T05:13:05;18.30;99.90
41058;DHT22;27499;48.884;2.258;2022-10-17T05:15:33;18.30;99.90
41058;DHT22;27499;48.884;2.258;2022-10-17T05:18:00;18.30;99.90
41058;DHT22;27499;48.884;2.258;2022-10-17T05:20:27;18.30;99.90
41058;DHT22;27499;48.884;2.258;2022-10-17T05:22:54;18.20;99.90
41058;DHT22;27499;48.884;2.258;2022-10-17T05:25:21;18.20;99.90
41058;DHT22;27499;48.884;2.258;2022-10-17T05:27:48;18.20;99.90
41058;DHT22;27499;48.884;2.258;2022-10-17T05:30:14;18.20;99.90
41058;DHT22;27499;48.884;2.258;2022-10-17T05:32:41;18.10;99.90
41058;DHT22;27499;48.884;2.258;2022-10-17T05:35:08;18.20;99.90
41058;DHT22;27499;48.884;2.258;2022-10-17T05:37:35;18.10;99.90
41058;DHT22;27499;48.884;2.258;2022-10-17T05:40:03;18.10;99.90
41058;DHT22;27499;48.884;2.258;2022-10-17T05:42:29;18.10;99.90
41058;DHT22;27499;48.884;2.258;2022-10-17T05:44:57;18.10;99.90
41058;DHT22;27499;48.884;2.258;2022-10-17T05:47:24;18.00;99.90
41058;DHT22;27499;48.884;2.258;2022-10-17T05:49:51;18.10;99.90
41058;DHT22;27499;48.884;2.258;2022-10-17T05:52:18;18.00;99.90
41058;DHT22;27499;48.884;2.258;2022-10-17T05:54:45;18.00;99.90
41058;DHT22;27499;48.884;2.258;2022-10-17T05:57:11;18.00;99.90
41058;DHT22;27499;48.884;2.258;2022-10-17T05:59:38;18.00;99.90
41058;DHT22;27499;48.884;2.258;2022-10-17T06:02:05;18.00;99.90
41058;DHT22;27499;48.884;2.258;2022-10-17T06:04:32;17.90;99.90
41058;DHT22;27499;48.884;2.258;2022-10-17T06:06:59;18.00;99.90
41058;DHT22;27499;48.884;2.258;2022-10-17T06:09:27;17.90;99.90
41058;DHT22;27499;48.884;2.258;2022-10-17T06:11:54;17.90;99.90
41058;DHT22;27499;48.884;2.258;2022-10-17T06:14:21;17.90;99.90
41058;DHT22;27499;48.884;2.258;2022-10-17T06:16:47;17.90;99.90
41058;DHT22;27499;48.884;2.258;2022-10-17T06:19:14;18.00;99.90
41058;DHT22;27499;48.884;2.258;2022-10-17T06:21:41;17.90;99.90
41058;DHT22;27499;48.884;2.258;2022-10-17T06:24:08;17.90;99.90
41058;DHT22;27499;48.884;2.258;2022-10-17T06:26:35;17.90;99.90
41058;DHT22;27499;48.884;2.258;2022-10-17T06:29:02;17.90;99.90
41058;DHT22;27499;48.884;2.258;2022-10-17T06:31:29;17.90;99.90
41058;DHT22;27499;48.884;2.258;2022-10-17T06:33:56;17.90;99.90
41058;DHT22;27499;48.884;2.258;2022-10-17T06:36:23;17.90;99.90
41058;DHT22;27499;48.884;2.258;2022-10-17T06:38:50;17.90;99.90
41058;DHT22;27499;48.884;2.258;2022-10-17T06:41:17;18.00;99.90
41058;DHT22;27499;48.884;2.258;2022-10-17T06:43:45;17.90;99.90
41058;DHT22;27499;48.884;2.258;2022-10-17T06:46:14;18.00;99.90
41058;DHT22;27499;48.884;2.258;2022-10-17T06:48:41;17.90;99.90
41058;DHT22;27499;48.884;2.258;2022-10-17T06:51:09;17.90;99.90
41058;DHT22;27499;48.884;2.258;2022-10-17T06:53:38;17.90;99.90
41058;DHT22;27499;48.884;2.258;2022-10-17T06:56:06;17.90;99.90
41058;DHT22;27499;48.884;2.258;2022-10-17T06:58:35;17.90;99.90
41058;DHT22;27499;48.884;2.258;2022-10-17T07:01:05;17.90;99.90
41058;DHT22;27499;48.884;2.258;2022-10-17T07:03:36;18.00;99.90
41058;DHT22;27499;48.884;2.258;2022-10-17T07:06:03;18.00;99.90
41058;DHT22;27499;48.884;2.258;2022-10-17T07:08:30;18.00;99.90
41058;DHT22;27499;48.884;2.258;2022-10-17T07:10:57;18.00;99.90
41058;DHT22;27499;48.884;2.258;2022-10-17T07:13:24;18.00;99.90
41058;DHT22;27499;48.884;2.258;2022-10-17T07:15:51;18.00;99.90
41058;DHT22;27499;48.884;2.258;2022-10-17T07:18:18;18.00;99.90
41058;DHT22;27499;48.884;2.258;2022-10-17T07:20:52;18.00;99.90
41058;DHT22;27499;48.884;2.258;2022-10-17T07:23:20;18.10;99.90
41058;DHT22;27499;48.884;2.258;2022-10-17T07:25:46;18.10;99.90
41058;DHT22;27499;48.884;2.258;2022-10-17T07:28:14;18.10;99.90
41058;DHT22;27499;48.884;2.258;2022-10-17T07:30:41;18.10;99.90
41058;DHT22;27499;48.884;2.258;2022-10-17T07:33:08;18.10;99.90
41058;DHT22;27499;48.884;2.258;2022-10-17T07:35:37;18.10;99.90
41058;DHT22;27499;48.884;2.258;2022-10-17T07:38:06;18.20;99.90
41058;DHT22;27499;48.884;2.258;2022-10-17T07:40:33;18.20;99.90
41058;DHT22;27499;48.884;2.258;2022-10-17T07:43:00;18.20;99.90
41058;DHT22;27499;48.884;2.258;2022-10-17T07:45:27;18.20;99.90
41058;DHT22;27499;48.884;2.258;2022-10-17T07:47:57;18.20;99.90
41058;DHT22;27499;48.884;2.258;2022-10-17T07:50:24;18.20;99.90
41058;DHT22;27499;48.884;2.258;2022-10-17T07:52:50;18.30;99.90
41058;DHT22;27499;48.884;2.258;2022-10-17T07:55:17;18.30;99.90
41058;DHT22;27499;48.884;2.258;2022-10-17T07:57:44;18.30;99.90
41058;DHT22;27499;48.884;2.258;2022-10-17T08:00:11;18.30;99.90
41058;DHT22;27499;48.884;2.258;2022-10-17T08:02:38;18.30;99.90
41058;DHT22;27499;48.884;2.258;2022-10-17T08:05:05;18.40;99.90
41058;DHT22;27499;48.884;2.258;2022-10-17T08:07:32;18.40;99.90
41058;DHT22;27499;48.884;2.258;2022-10-17T08:09:59;18.40;99.90
41058;DHT22;27499;48.884;2.258;2022-10-17T08:12:26;18.40;99.90
41058;DHT22;27499;48.884;2.258;2022-10-17T08:14:53;18.50;99.90
41058;DHT22;27499;48.884;2.258;2022-10-17T08:17:20;18.50;99.90
41058;DHT22;27499;48.884;2.258;2022-10-17T08:19:47;18.50;99.90
41058;DHT22;27499;48.884;2.258;2022-10-17T08:22:14;18.50;99.90
41058;DHT22;27499;48.884;2.258;2022-10-17T08:24:41;18.50;99.90
41058;DHT22;27499;48.884;2.258;2022-10-17T08:27:11;18.50;99.90
41058;DHT22;27499;48.884;2.258;2022-10-17T08:29:39;18.50;99.90
41058;DHT22;27499;48.884;2.258;2022-10-17T08:32:06;18.50;99.90
41058;DHT22;27499;48.884;2.258;2022-10-17T08:34:35;18.60;99.90
41058;DHT22;27499;48.884;2.258;2022-10-17T08:37:02;18.60;99.90
41058;DHT22;27499;48.884;2.258;2022-10-17T08:39:30;18.60;99.90
41058;DHT22;27499;48.884;2.258;2022-10-17T08:47:34;18.70;99.90
41058;DHT22;27499;48.884;2.258;2022-10-17T08:50:04;18.70;99.90
41058;DHT22;27499;48.884;2.258;2022-10-17T08:52:42;18.80;99.90
41058;DHT22;27499;48.884;2.258;2022-10-17T08:55:39;18.80;99.90
41058;DHT22;27499;48.884;2.258;2022-10-17T08:58:21;18.80;99.90
41058;DHT22;27499;48.884;2.258;2022-10-17T09:01:01;18.80;99.90
41058;DHT22;27499;48.884;2.258;2022-10-17T09:03:57;18.80;99.90
41058;DHT22;27499;48.884;2.258;2022-10-17T09:06:31;18.90;99.90
41058;DHT22;27499;48.884;2.258;2022-10-17T09:17:14;18.90;99.90
41058;DHT22;27499;48.884;2.258;2022-10-17T09:20:00;18.90;99.90
41058;DHT22;27499;48.884;2.258;2022-10-17T09:22:33;18.90;99.90
41058;DHT22;27499;48.884;2.258;2022-10-17T09:25:08;18.90;99.90
41058;DHT22;27499;48.884;2.258;2022-10-17T09:28:28;18.90;99.90
41058;DHT22;27499;48.884;2.258;2022-10-17T09:33:27;18.90;99.90
41058;DHT22;27499;48.884;2.258;2022-10-17T09:38:49;18.90;99.90
41058;DHT22;27499;48.884;2.258;2022-10-17T09:41:46;18.90;99.90
41058;DHT22;27499;48.884;2.258;2022-10-17T09:49:39;18.80;99.90
41058;DHT22;27499;48.884;2.258;2022-10-17T09:52:16;18.80;99.90
41058;DHT22;27499;48.884;2.258;2022-10-17T09:54:58;18.80;99.90
41058;DHT22;27499;48.884;2.258;2022-10-17T09:57:27;18.80;99.90
41058;DHT22;27499;48.884;2.258;2022-10-17T09:59:59;18.80;99.90
41058;DHT22;27499;48.884;2.258;2022-10-17T10:02:29;18.80;99.90
41058;DHT22;27499;48.884;2.258;2022-10-17T10:05:05;18.80;99.90
41058;DHT22;27499;48.884;2.258;2022-10-17T10:07:37;18.80;99.90
41058;DHT22;27499;48.884;2.258;2022-10-17T10:10:22;18.80;99.90
41058;DHT22;27499;48.884;2.258;2022-10-17T10:13:15;18.80;99.90
41058;DHT22;27499;48.884;2.258;2022-10-17T10:15:44;18.80;99.90
41058;DHT22;27499;48.884;2.258;2022-10-17T10:21:12;18.80;99.90
41058;DHT22;27499;48.884;2.258;2022-10-17T10:23:42;18.70;99.90
41058;DHT22;27499;48.884;2.258;2022-10-17T10:26:25;18.70;99.90
41058;DHT22;27499;48.884;2.258;2022-10-17T10:29:03;18.70;99.90
41058;DHT22;27499;48.884;2.258;2022-10-17T10:31:38;18.70;99.90
41058;DHT22;27499;48.884;2.258;2022-10-17T10:34:23;18.70;99.90
41058;DHT22;27499;48.884;2.258;2022-10-17T10:36:58;18.70;99.90
41058;DHT22;27499;48.884;2.258;2022-10-17T10:39:31;18.80;99.90
41058;DHT22;27499;48.884;2.258;2022-10-17T10:42:00;18.80;99.90
41058;DHT22;27499;48.884;2.258;2022-10-17T10:44:29;18.80;99.90
41058;DHT22;27499;48.884;2.258;2022-10-17T10:47:15;18.80;99.90
41058;DHT22;27499;48.884;2.258;2022-10-17T10:49:43;18.80;99.90
41058;DHT22;27499;48.884;2.258;2022-10-17T10:57:51;18.80;99.90
41058;DHT22;27499;48.884;2.258;2022-10-17T11:00:22;18.80;99.90
41058;DHT22;27499;48.884;2.258;2022-10-17T11:06:09;18.80;99.90
41058;DHT22;27499;48.884;2.258;2022-10-17T11:08:44;18.80;99.90
41058;DHT22;27499;48.884;2.258;2022-10-17T11:11:30;18.80;99.90
41058;DHT22;27499;48.884;2.258;2022-10-17T11:16:49;18.90;99.90
41058;DHT22;27499;48.884;2.258;2022-10-17T11:19:33;18.80;99.90
41058;DHT22;27499;48.884;2.258;2022-10-17T11:22:13;18.90;99.90
41058;DHT22;27499;48.884;2.258;2022-10-17T11:27:52;18.90;99.90
41058;DHT22;27499;48.884;2.258;2022-10-17T11:30:20;18.90;99.90
41058;DHT22;27499;48.884;2.258;2022-10-17T11:32:55;19.00;99.90
41058;DHT22;27499;48.884;2.258;2022-10-17T11:35:27;19.00;99.90
41058;DHT22;27499;48.884;2.258;2022-10-17T11:38:05;19.00;99.90
41058;DHT22;27499;48.884;2.258;2022-10-17T11:40:35;19.00;99.90
41058;DHT22;27499;48.884;2.258;2022-10-17T11:43:13;19.00;99.90
41058;DHT22;27499;48.884;2.258;2022-10-17T11:45:45;19.00;99.90
41058;DHT22;27499;48.884;2.258;2022-10-17T11:48:40;19.00;99.90
41058;DHT22;27499;48.884;2.258;2022-10-17T11:51:09;19.00;99.90
41058;DHT22;27499;48.884;2.258;2022-10-17T11:54:11;19.00;99.90
41058;DHT22;27499;48.884;2.258;2022-10-17T11:56:51;19.00;99.90
41058;DHT22;27499;48.884;2.258;2022-10-17T11:59:56;19.00;99.90
41058;DHT22;27499;48.884;2.258;2022-10-17T12:08:17;19.00;99.90
41058;DHT22;27499;48.884;2.258;2022-10-17T12:11:00;19.00;99.90
41058;DHT22;27499;48.884;2.258;2022-10-17T12:15:57;19.00;99.90
41058;DHT22;27499;48.884;2.258;2022-10-17T12:18:44;19.00;99.90
41058;DHT22;27499;48.884;2.258;2022-10-17T12:21:11;19.00;99.90
41058;DHT22;27499;48.884;2.258;2022-10-17T12:23:38;19.00;99.90
41058;DHT22;27499;48.884;2.258;2022-10-17T12:26:08;19.00;99.90
41058;DHT22;27499;48.884;2.258;2022-10-17T12:28:42;19.00;99.90
41058;DHT22;27499;48.884;2.258;2022-10-17T12:38:50;19.00;99.90
41058;DHT22;27499;48.884;2.258;2022-10-17T12:46:43;18.90;99.90
41058;DHT22;27499;48.884;2.258;2022-10-17T12:54:44;18.90;99.90
41058;DHT22;27499;48.884;2.258;2022-10-17T12:59:52;18.90;99.90
41058;DHT22;27499;48.884;2.258;2022-10-17T13:02:26;18.90;99.90
41058;DHT22;27499;48.884;2.258;2022-10-17T13:05:07;18.80;99.90
41058;DHT22;27499;48.884;2.258;2022-10-17T13:07:40;18.80;99.90
41058;DHT22;27499;48.884;2.258;2022-10-17T13:10:19;18.80;99.90
41058;DHT22;27499;48.884;2.258;2022-10-17T13:12:48;18.80;99.90
41058;DHT22;27499;48.884;2.258;2022-10-17T13:15:17;18.80;99.90
41058;DHT22;27499;48.884;2.258;2022-10-17T13:17:45;18.80;99.90
41058;DHT22;27499;48.884;2.258;2022-10-17T13:20:21;18.80;99.90
41058;DHT22;27499;48.884;2.258;2022-10-17T13:22:57;18.80;99.90
41058;DHT22;27499;48.884;2.258;2022-10-17T13:25:25;18.80;99.90
41058;DHT22;27499;48.884;2.258;2022-10-17T13:28:04;18.80;99.90
41058;DHT22;27499;48.884;2.258;2022-10-17T13:30:34;18.80;99.90
41058;DHT22;27499;48.884;2.258;2022-10-17T13:33:01;18.80;99.90
41058;DHT22;27499;48.884;2.258;2022-10-17T13:35:37;18.80;99.90
41058;DHT22;27499;48.884;2.258;2022-10-17T13:38:27;18.80;99.90
41058;DHT22;27499;48.884;2.258;2022-10-17T13:40:55;18.80;99.90
41058;DHT22;27499;48.884;2.258;2022-10-17T13:43:42;18.80;99.90
41058;DHT22;27499;48.884;2.258;2022-10-17T13:46:25;18.80;99.90
41058;DHT22;27499;48.884;2.258;2022-10-17T13:49:22;18.80;99.90
41058;DHT22;27499;48.884;2.258;2022-10-17T13:51:54;18.80;99.90
41058;DHT22;27499;48.884;2.258;2022-10-17T13:54:43;18.80;99.90
41058;DHT22;27499;48.884;2.258;2022-10-17T13:57:27;18.80;99.90
41058;DHT22;27499;48.884;2.258;2022-10-17T14:00:00;18.80;99.90
41058;DHT22;27499;48.884;2.258;2022-10-17T14:02:36;18.80;99.90
41058;DHT22;27499;48.884;2.258;2022-10-17T14:07:55;18.80;99.90
41058;DHT22;27499;48.884;2.258;2022-10-17T14:10:43;18.80;99.90
41058;DHT22;27499;48.884;2.258;2022-10-17T14:13:22;18.80;99.90
41058;DHT22;27499;48.884;2.258;2022-10-17T14:15:49;18.80;99.90
41058;DHT22;27499;48.884;2.258;2022-10-17T14:18:21;18.80;99.90
41058;DHT22;27499;48.884;2.258;2022-10-17T14:20:49;18.80;99.90
41058;DHT22;27499;48.884;2.258;2022-10-17T14:23:43;18.80;99.90
41058;DHT22;27499;48.884;2.258;2022-10-17T14:26:19;18.80;99.90
41058;DHT22;27499;48.884;2.258;2022-10-17T14:28:49;18.80;99.90
41058;DHT22;27499;48.884;2.258;2022-10-17T14:31:31;18.70;99.90
41058;DHT22;27499;48.884;2.258;2022-10-17T14:34:00;18.70;99.90
41058;DHT22;27499;48.884;2.258;2022-10-17T14:36:36;18.70;99.90
41058;DHT22;27499;48.884;2.258;2022-10-17T14:39:06;18.70;99.90
41058;DHT22;27499;48.884;2.258;2022-10-17T14:41:42;18.70;99.90
41058;DHT22;27499;48.884;2.258;2022-10-17T14:44:25;18.70;99.90
41058;DHT22;27499;48.884;2.258;2022-10-17T14:47:03;18.70;99.90
41058;DHT22;27499;48.884;2.258;2022-10-17T14:50:03;18.70;99.90
41058;DHT22;27499;48.884;2.258;2022-10-17T14:52:31;18.70;99.90
41058;DHT22;27499;48.884;2.258;2022-10-17T14:55:10;18.70;99.90
41058;DHT22;27499;48.884;2.258;2022-10-17T14:57:43;18.70;99.90
41058;DHT22;27499;48.884;2.258;2022-10-17T15:00:15;18.70;99.90
41058;DHT22;27499;48.884;2.258;2022-10-17T15:02:43;18.70;99.90
41058;DHT22;27499;48.884;2.258;2022-10-17T15:05:10;18.70;99.90
41058;DHT22;27499;48.884;2.258;2022-10-17T15:07:40;18.70;99.90
41058;DHT22;27499;48.884;2.258;2022-10-17T15:12:52;18.70;99.90
41058;DHT22;27499;48.884;2.258;2022-10-17T15:15:36;18.70;99.90
41058;DHT22;27499;48.884;2.258;2022-10-17T15:18:04;18.70;99.90
41058;DHT22;27499;48.884;2.258;2022-10-17T15:20:32;18.60;99.90
41058;DHT22;27499;48.884;2.258;2022-10-17T15:23:00;18.60;99.90
41058;DHT22;27499;48.884;2.258;2022-10-17T15:25:29;18.60;99.90
41058;DHT22;27499;48.884;2.258;2022-10-17T15:27:57;18.60;99.90
41058;DHT22;27499;48.884;2.258;2022-10-17T15:30:25;18.60;99.90
41058;DHT22;27499;48.884;2.258;2022-10-17T15:32:53;18.60;99.90
41058;DHT22;27499;48.884;2.258;2022-10-17T15:35:20;18.60;99.90
41058;DHT22;27499;48.884;2.258;2022-10-17T15:37:48;18.60;99.90
41058;DHT22;27499;48.884;2.258;2022-10-17T15:42:44;18.60;99.90
41058;DHT22;27499;48.884;2.258;2022-10-17T15:45:12;18.60;99.90
41058;DHT22;27499;48.884;2.258;2022-10-17T15:47:42;18.60;99.90
41058;DHT22;27499;48.884;2.258;2022-10-17T15:50:13;18.50;99.90
41058;DHT22;27499;48.884;2.258;2022-10-17T15:52:40;18.50;99.90
41058;DHT22;27499;48.884;2.258;2022-10-17T15:55:09;18.50;99.90
41058;DHT22;27499;48.884;2.258;2022-10-17T15:57:39;18.50;99.90
41058;DHT22;27499;48.884;2.258;2022-10-17T16:02:42;18.50;99.90
41058;DHT22;27499;48.884;2.258;2022-10-17T16:05:23;18.50;99.90
41058;DHT22;27499;48.884;2.258;2022-10-17T16:07:55;18.50;99.90
41058;DHT22;27499;48.884;2.258;2022-10-17T16:10:23;18.50;99.90
41058;DHT22;27499;48.884;2.258;2022-10-17T16:12:54;18.50;99.90
41058;DHT22;27499;48.884;2.258;2022-10-17T16:15:25;18.50;99.90
41058;DHT22;27499;48.884;2.258;2022-10-17T16:17:55;18.50;99.90
41058;DHT22;27499;48.884;2.258;2022-10-17T16:20:23;18.50;99.90
41058;DHT22;27499;48.884;2.258;2022-10-17T16:22:52;18.50;99.90
41058;DHT22;27499;48.884;2.258;2022-10-17T16:25:26;18.50;99.90
41058;DHT22;27499;48.884;2.258;2022-10-17T16:27:56;18.50;99.90
41058;DHT22;27499;48.884;2.258;2022-10-17T16:30:25;18.40;99.90
41058;DHT22;27499;48.884;2.258;2022-10-17T16:32:53;18.40;99.90
41058;DHT22;27499;48.884;2.258;2022-10-17T16:35:27;18.40;99.90
41058;DHT22;27499;48.884;2.258;2022-10-17T16:38:00;18.40;99.90
41058;DHT22;27499;48.884;2.258;2022-10-17T16:40:27;18.40;99.90
41058;DHT22;27499;48.884;2.258;2022-10-17T16:42:54;18.40;99.90
41058;DHT22;27499;48.884;2.258;2022-10-17T16:45:22;18.40;99.90
41058;DHT22;27499;48.884;2.258;2022-10-17T16:47:49;18.40;99.90
41058;DHT22;27499;48.884;2.258;2022-10-17T16:50:16;18.40;99.90
41058;DHT22;27499;48.884;2.258;2022-10-17T16:52:43;18.40;99.90
41058;DHT22;27499;48.884;2.258;2022-10-17T16:55:10;18.40;99.90
41058;DHT22;27499;48.884;2.258;2022-10-17T16:57:37;18.40;99.90
41058;DHT22;27499;48.884;2.258;2022-10-17T17:00:05;18.40;99.90
41058;DHT22;27499;48.884;2.258;2022-10-17T17:02:32;18.40;99.90
41058;DHT22;27499;48.884;2.258;2022-10-17T17:04:59;18.40;99.90
41058;DHT22;27499;48.884;2.258;2022-10-17T17:07:27;18.40;99.90
41058;DHT22;27499;48.884;2.258;2022-10-17T17:09:55;18.40;99.90
41058;DHT22;27499;48.884;2.258;2022-10-17T17:12:22;18.40;99.90
41058;DHT22;27499;48.884;2.258;2022-10-17T17:14:49;18.40;99.90
41058;DHT22;27499;48.884;2.258;2022-10-17T17:17:16;18.30;99.90
41058;DHT22;27499;48.884;2.258;2022-10-17T17:20:05;18.30;99.90
41058;DHT22;27499;48.884;2.258;2022-10-17T17:22:31;18.30;99.90
41058;DHT22;27499;48.884;2.258;2022-10-17T17:24:58;18.30;99.90
41058;DHT22;27499;48.884;2.258;2022-10-17T17:27:28;18.30;99.90
41058;DHT22;27499;48.884;2.258;2022-10-17T17:29:56;18.30;99.90
41058;DHT22;27499;48.884;2.258;2022-10-17T17:32:22;18.30;99.90
41058;DHT22;27499;48.884;2.258;2022-10-17T17:34:49;18.30;99.90
41058;DHT22;27499;48.884;2.258;2022-10-17T17:37:16;18.30;99.90
41058;DHT22;27499;48.884;2.258;2022-10-17T17:39:43;18.30;99.90
41058;DHT22;27499;48.884;2.258;2022-10-17T17:42:10;18.30;99.90
41058;DHT22;27499;48.884;2.258;2022-10-17T17:44:37;18.20;99.90
41058;DHT22;27499;48.884;2.258;2022-10-17T17:47:04;18.30;99.90
41058;DHT22;27499;48.884;2.258;2022-10-17T17:49:30;18.20;99.90
41058;DHT22;27499;48.884;2.258;2022-10-17T17:51:57;18.20;99.90
41058;DHT22;27499;48.884;2.258;2022-10-17T17:54:24;18.20;99.90
41058;DHT22;27499;48.884;2.258;2022-10-17T17:56:51;18.20;99.90